sensor_id;sensor_type;location;lat;lon;timestamp;pressure;altitude;pressure_sealevel;temperature;humidity
63181;BME280;49273;37.772;-122.432;2022-11-11T00:00:59;101656.77;;;15.73;58.33
63181;BME280;49273;37.772;-122.432;2022-11-11T00:03:28;101660.24;;;15.68;59.14
63181;BME280;49273;37.772;-122.432;2022-11-11T00:06:00;101656.96;;;15.64;59.31
63181;BME280;49273;37.772;-122.432;2022-11-11T00:08:28;101659.32;;;15.52;59.90
63181;BME280;49273;37.772;-122.432;2022-11-11T00:11:01;101665.84;;;15.38;60.97
63181;BME280;49273;37.772;-122.432;2022-11-11T00:13:30;101665.23;;;15.06;62.41
63181;BME280;49273;37.772;-122.432;2022-11-11T00:16:04;101661.65;;;14.73;64.08
63181;BME280;49273;37.772;-122.432;2022-11-11T00:18:32;101662.58;;;14.66;65.08
63181;BME280;49273;37.772;-122.432;2022-11-11T00:21:00;101663.89;;;14.47;66.21
63181;BME280;49273;37.772;-122.432;2022-11-11T00:23:29;101658.40;;;14.33;67.39
63181;BME280;49273;37.772;-122.432;2022-11-11T00:25:57;101659.42;;;14.11;68.44
63181;BME280;49273;37.772;-122.432;2022-11-11T00:28:26;101653.62;;;14.01;69.45
63181;BME280;49273;37.772;-122.432;2022-11-11T00:31:01;101655.28;;;13.73;70.85
63181;BME280;49273;37.772;-122.432;2022-11-11T00:33:29;101655.48;;;13.76;71.48
63181;BME280;49273;37.772;-122.432;2022-11-11T00:35:57;101656.93;;;13.65;72.23
63181;BME280;49273;37.772;-122.432;2022-11-11T00:38:26;101657.68;;;13.77;73.05
63181;BME280;49273;37.772;-122.432;2022-11-11T00:40:55;101655.52;;;13.79;73.12
63181;BME280;49273;37.772;-122.432;2022-11-11T00:43:22;101650.70;;;13.51;75.00
63181;BME280;49273;37.772;-122.432;2022-11-11T00:45:50;101655.99;;;13.35;76.18
63181;BME280;49273;37.772;-122.432;2022-11-11T00:48:18;101655.57;;;13.39;76.79
63181;BME280;49273;37.772;-122.432;2022-11-11T00:50:46;101654.33;;;13.32;77.22
63181;BME280;49273;37.772;-122.432;2022-11-11T00:53:16;101654.79;;;13.31;78.18
63181;BME280;49273;37.772;-122.432;2022-11-11T00:55:45;101654.94;;;13.11;79.54
63181;BME280;49273;37.772;-122.432;2022-11-11T00:58:13;101654.00;;;13.08;79.79
63181;BME280;49273;37.772;-122.432;2022-11-11T01:00:41;101649.55;;;13.28;79.50
63181;BME280;49273;37.772;-122.432;2022-11-11T01:03:09;101651.28;;;13.15;80.11
63181;BME280;49273;37.772;-122.432;2022-11-11T01:05:37;101654.71;;;13.09;80.40
63181;BME280;49273;37.772;-122.432;2022-11-11T01:08:05;101650.06;;;12.97;80.62
63181;BME280;49273;37.772;-122.432;2022-11-11T01:10:35;101650.43;;;13.07;80.87
63181;BME280;49273;37.772;-122.432;2022-11-11T01:13:03;101649.69;;;12.96;80.79
63181;BME280;49273;37.772;-122.432;2022-11-11T01:15:33;101654.70;;;13.00;80.92
63181;BME280;49273;37.772;-122.432;2022-11-11T01:18:01;101649.75;;;13.11;80.23
63181;BME280;49273;37.772;-122.432;2022-11-11T01:20:29;101645.79;;;12.93;80.50
63181;BME280;49273;37.772;-122.432;2022-11-11T01:22:56;101639.99;;;12.96;80.17
63181;BME280;49273;37.772;-122.432;2022-11-11T01:25:24;101645.49;;;12.91;80.14
63181;BME280;49273;37.772;-122.432;2022-11-11T01:27:53;101646.96;;;12.82;80.42
63181;BME280;49273;37.772;-122.432;2022-11-11T01:30:20;101642.03;;;12.78;80.62
63181;BME280;49273;37.772;-122.432;2022-11-11T01:32:48;101637.66;;;12.76;80.52
63181;BME280;49273;37.772;-122.432;2022-11-11T01:35:16;101637.92;;;12.86;80.11
63181;BME280;49273;37.772;-122.432;2022-11-11T01:37:45;101640.13;;;12.95;79.94
63181;BME280;49273;37.772;-122.432;2022-11-11T01:40:13;101642.93;;;12.99;79.33
63181;BME280;49273;37.772;-122.432;2022-11-11T01:42:50;101645.12;;;12.71;79.85
63181;BME280;49273;37.772;-122.432;2022-11-11T01:45:54;101641.55;;;12.80;79.58
63181;BME280;49273;37.772;-122.432;2022-11-11T01:48:28;101636.35;;;12.68;79.67
63181;BME280;49273;37.772;-122.432;2022-11-11T01:50:58;101638.14;;;12.67;79.96
63181;BME280;49273;37.772;-122.432;2022-11-11T01:53:27;101638.83;;;12.78;79.73
63181;BME280;49273;37.772;-122.432;2022-11-11T01:55:56;101637.24;;;12.74;79.52
63181;BME280;49273;37.772;-122.432;2022-11-11T01:58:26;101638.52;;;12.77;79.33
63181;BME280;49273;37.772;-122.432;2022-11-11T02:00:54;101639.89;;;12.67;79.69
63181;BME280;49273;37.772;-122.432;2022-11-11T02:03:24;101633.16;;;12.84;79.23
63181;BME280;49273;37.772;-122.432;2022-11-11T02:05:55;101636.25;;;12.64;79.70
63181;BME280;49273;37.772;-122.432;2022-11-11T02:08:26;101638.34;;;12.74;79.25
63181;BME280;49273;37.772;-122.432;2022-11-11T02:10:55;101636.76;;;12.82;78.96
63181;BME280;49273;37.772;-122.432;2022-11-11T02:13:23;101640.59;;;12.68;79.21
63181;BME280;49273;37.772;-122.432;2022-11-11T02:15:51;101637.06;;;12.81;78.69
63181;BME280;49273;37.772;-122.432;2022-11-11T02:18:19;101633.36;;;12.69;78.69
63181;BME280;49273;37.772;-122.432;2022-11-11T02:20:48;101634.11;;;12.70;78.59
63181;BME280;49273;37.772;-122.432;2022-11-11T02:23:21;101633.46;;;12.60;78.75
63181;BME280;49273;37.772;-122.432;2022-11-11T02:25:52;101633.02;;;12.50;79.49
63181;BME280;49273;37.772;-122.432;2022-11-11T02:28:23;101629.80;;;12.54;79.59
63181;BME280;49273;37.772;-122.432;2022-11-11T02:30:52;101627.03;;;12.65;79.30
63181;BME280;49273;37.772;-122.432;2022-11-11T02:33:20;101626.95;;;12.40;80.03
63181;BME280;49273;37.772;-122.432;2022-11-11T02:35:50;101625.70;;;12.49;79.99
63181;BME280;49273;37.772;-122.432;2022-11-11T02:38:19;101619.81;;;12.55;79.90
63181;BME280;49273;37.772;-122.432;2022-11-11T02:40:47;101614.51;;;12.59;80.00
63181;BME280;49273;37.772;-122.432;2022-11-11T02:43:15;101611.83;;;12.58;80.05
63181;BME280;49273;37.772;-122.432;2022-11-11T02:45:43;101611.04;;;12.56;80.47
63181;BME280;49273;37.772;-122.432;2022-11-11T02:48:11;101613.28;;;12.76;79.97
63181;BME280;49273;37.772;-122.432;2022-11-11T02:50:39;101613.20;;;12.62;80.80
63181;BME280;49273;37.772;-122.432;2022-11-11T02:53:07;101616.08;;;12.70;80.86
63181;BME280;49273;37.772;-122.432;2022-11-11T02:55:35;101618.85;;;12.57;81.39
63181;BME280;49273;37.772;-122.432;2022-11-11T02:58:03;101623.49;;;12.69;80.89
63181;BME280;49273;37.772;-122.432;2022-11-11T03:00:31;101624.16;;;12.69;80.98
63181;BME280;49273;37.772;-122.432;2022-11-11T03:03:00;101619.24;;;12.63;81.13
63181;BME280;49273;37.772;-122.432;2022-11-11T03:05:27;101620.82;;;12.83;80.44
63181;BME280;49273;37.772;-122.432;2022-11-11T03:07:55;101620.65;;;12.74;80.21
63181;BME280;49273;37.772;-122.432;2022-11-11T03:10:23;101621.95;;;12.59;80.28
63181;BME280;49273;37.772;-122.432;2022-11-11T03:12:51;101624.23;;;12.55;78.67
63181;BME280;49273;37.772;-122.432;2022-11-11T03:15:19;101622.60;;;12.60;78.25
63181;BME280;49273;37.772;-122.432;2022-11-11T03:17:47;101630.65;;;12.73;77.57
63181;BME280;49273;37.772;-122.432;2022-11-11T03:20:16;101631.36;;;12.60;77.15
63181;BME280;49273;37.772;-122.432;2022-11-11T03:22:57;101623.68;;;12.61;77.19
63181;BME280;49273;37.772;-122.432;2022-11-11T03:25:26;101621.96;;;12.55;77.18
63181;BME280;49273;37.772;-122.432;2022-11-11T03:27:54;101620.43;;;12.55;77.14
63181;BME280;49273;37.772;-122.432;2022-11-11T03:30:22;101620.89;;;12.50;75.49
63181;BME280;49273;37.772;-122.432;2022-11-11T03:32:50;101622.52;;;12.68;75.34
63181;BME280;49273;37.772;-122.432;2022-11-11T03:35:18;101624.52;;;12.61;74.81
63181;BME280;49273;37.772;-122.432;2022-11-11T03:37:46;101623.85;;;12.51;75.26
63181;BME280;49273;37.772;-122.432;2022-11-11T03:40:15;101630.66;;;12.53;75.24
63181;BME280;49273;37.772;-122.432;2022-11-11T03:42:43;101629.47;;;12.48;75.97
63181;BME280;49273;37.772;-122.432;2022-11-11T03:45:10;101628.68;;;12.62;75.29
63181;BME280;49273;37.772;-122.432;2022-11-11T03:47:38;101629.51;;;12.52;75.50
63181;BME280;49273;37.772;-122.432;2022-11-11T03:50:07;101630.19;;;12.37;76.31
63181;BME280;49273;37.772;-122.432;2022-11-11T03:52:39;101631.01;;;12.48;75.99
63181;BME280;49273;37.772;-122.432;2022-11-11T03:55:08;101634.50;;;12.39;76.41
63181;BME280;49273;37.772;-122.432;2022-11-11T03:57:40;101636.21;;;12.47;76.13
63181;BME280;49273;37.772;-122.432;2022-11-11T04:00:10;101639.57;;;12.50;76.24
63181;BME280;49273;37.772;-122.432;2022-11-11T04:02:39;101639.55;;;12.48;76.42
63181;BME280;49273;37.772;-122.432;2022-11-11T04:05:07;101643.69;;;12.37;76.54
63181;BME280;49273;37.772;-122.432;2022-11-11T04:07:35;101651.84;;;12.22;77.50
63181;BME280;49273;37.772;-122.432;2022-11-11T04:10:04;101648.90;;;12.35;77.19
63181;BME280;49273;37.772;-122.432;2022-11-11T04:12:32;101649.92;;;12.36;76.96
63181;BME280;49273;37.772;-122.432;2022-11-11T04:15:02;101654.73;;;12.32;77.28
63181;BME280;49273;37.772;-122.432;2022-11-11T04:17:30;101651.85;;;12.40;77.25
63181;BME280;49273;37.772;-122.432;2022-11-11T04:19:57;101646.33;;;12.33;77.71
63181;BME280;49273;37.772;-122.432;2022-11-11T04:22:25;101651.32;;;12.31;77.75
63181;BME280;49273;37.772;-122.432;2022-11-11T04:24:53;101651.75;;;12.39;77.48
63181;BME280;49273;37.772;-122.432;2022-11-11T04:27:21;101645.88;;;12.23;78.08
63181;BME280;49273;37.772;-122.432;2022-11-11T04:29:50;101641.89;;;12.32;78.11
63181;BME280;49273;37.772;-122.432;2022-11-11T04:32:20;101646.45;;;12.26;77.98
63181;BME280;49273;37.772;-122.432;2022-11-11T04:34:50;101646.38;;;12.26;77.88
63181;BME280;49273;37.772;-122.432;2022-11-11T04:37:19;101644.66;;;12.38;77.87
63181;BME280;49273;37.772;-122.432;2022-11-11T04:39:48;101648.73;;;12.35;77.90
63181;BME280;49273;37.772;-122.432;2022-11-11T04:42:16;101648.74;;;12.27;78.30
63181;BME280;49273;37.772;-122.432;2022-11-11T04:44:44;101647.28;;;12.40;77.99
63181;BME280;49273;37.772;-122.432;2022-11-11T04:47:12;101648.91;;;12.41;77.72
63181;BME280;49273;37.772;-122.432;2022-11-11T04:49:40;101646.50;;;12.51;77.49
63181;BME280;49273;37.772;-122.432;2022-11-11T04:52:10;101645.24;;;12.53;77.74
63181;BME280;49273;37.772;-122.432;2022-11-11T04:54:38;101647.06;;;12.39;78.34
63181;BME280;49273;37.772;-122.432;2022-11-11T04:57:06;101646.52;;;12.46;78.02
63181;BME280;49273;37.772;-122.432;2022-11-11T04:59:33;101644.14;;;12.50;77.77
63181;BME280;49273;37.772;-122.432;2022-11-11T05:02:01;101643.52;;;12.44;78.07
63181;BME280;49273;37.772;-122.432;2022-11-11T05:04:30;101651.33;;;12.38;78.69
63181;BME280;49273;37.772;-122.432;2022-11-11T05:06:58;101649.93;;;12.43;78.37
63181;BME280;49273;37.772;-122.432;2022-11-11T05:09:25;101650.58;;;12.29;78.85
63181;BME280;49273;37.772;-122.432;2022-11-11T05:11:54;101650.44;;;12.09;79.59
63181;BME280;49273;37.772;-122.432;2022-11-11T05:14:22;101653.03;;;12.16;79.29
63181;BME280;49273;37.772;-122.432;2022-11-11T05:16:51;101654.17;;;12.17;79.35
63181;BME280;49273;37.772;-122.432;2022-11-11T05:19:20;101654.88;;;12.33;79.22
63181;BME280;49273;37.772;-122.432;2022-11-11T05:21:49;101654.60;;;12.37;78.08
63181;BME280;49273;37.772;-122.432;2022-11-11T05:24:19;101654.44;;;12.40;78.02
63181;BME280;49273;37.772;-122.432;2022-11-11T05:26:47;101657.01;;;12.38;78.30
63181;BME280;49273;37.772;-122.432;2022-11-11T05:29:16;101656.34;;;12.27;78.19
63181;BME280;49273;37.772;-122.432;2022-11-11T05:31:43;101657.44;;;12.31;77.86
63181;BME280;49273;37.772;-122.432;2022-11-11T05:34:11;101653.37;;;12.20;76.58
63181;BME280;49273;37.772;-122.432;2022-11-11T05:36:39;101651.96;;;12.36;74.85
63181;BME280;49273;37.772;-122.432;2022-11-11T05:39:08;101651.62;;;12.51;74.28
63181;BME280;49273;37.772;-122.432;2022-11-11T05:41:36;101653.91;;;12.52;73.31
63181;BME280;49273;37.772;-122.432;2022-11-11T05:44:04;101654.06;;;12.50;73.76
63181;BME280;49273;37.772;-122.432;2022-11-11T05:46:33;101653.21;;;12.37;74.00
63181;BME280;49273;37.772;-122.432;2022-11-11T05:49:01;101648.86;;;12.48;73.26
63181;BME280;49273;37.772;-122.432;2022-11-11T05:51:28;101648.92;;;12.41;74.02
63181;BME280;49273;37.772;-122.432;2022-11-11T05:53:57;101649.72;;;12.46;72.61
63181;BME280;49273;37.772;-122.432;2022-11-11T05:56:25;101649.61;;;12.25;74.35
63181;BME280;49273;37.772;-122.432;2022-11-11T05:58:53;101654.34;;;12.13;75.00
63181;BME280;49273;37.772;-122.432;2022-11-11T06:01:21;101654.87;;;12.19;74.99
63181;BME280;49273;37.772;-122.432;2022-11-11T06:03:48;101657.96;;;12.11;75.10
63181;BME280;49273;37.772;-122.432;2022-11-11T06:06:16;101659.73;;;12.02;75.53
63181;BME280;49273;37.772;-122.432;2022-11-11T06:08:50;101660.98;;;11.95;75.94
63181;BME280;49273;37.772;-122.432;2022-11-11T06:11:18;101660.93;;;12.07;74.76
63181;BME280;49273;37.772;-122.432;2022-11-11T06:13:48;101658.04;;;12.05;75.01
63181;BME280;49273;37.772;-122.432;2022-11-11T06:16:16;101655.94;;;11.93;74.36
63181;BME280;49273;37.772;-122.432;2022-11-11T06:18:44;101654.22;;;11.99;74.49
63181;BME280;49273;37.772;-122.432;2022-11-11T06:21:12;101655.93;;;11.90;74.89
63181;BME280;49273;37.772;-122.432;2022-11-11T06:23:40;101656.10;;;11.94;75.08
63181;BME280;49273;37.772;-122.432;2022-11-11T06:26:09;101654.99;;;11.82;75.54
63181;BME280;49273;37.772;-122.432;2022-11-11T06:28:38;101655.61;;;11.81;75.51
63181;BME280;49273;37.772;-122.432;2022-11-11T06:31:08;101652.28;;;11.79;75.56
63181;BME280;49273;37.772;-122.432;2022-11-11T06:33:37;101655.72;;;11.85;75.52
63181;BME280;49273;37.772;-122.432;2022-11-11T06:36:07;101654.56;;;11.81;75.69
63181;BME280;49273;37.772;-122.432;2022-11-11T06:38:36;101656.30;;;11.74;75.86
63181;BME280;49273;37.772;-122.432;2022-11-11T06:41:04;101654.23;;;11.86;75.11
63181;BME280;49273;37.772;-122.432;2022-11-11T06:43:38;101655.54;;;11.78;75.74
63181;BME280;49273;37.772;-122.432;2022-11-11T06:46:07;101652.82;;;11.75;75.54
63181;BME280;49273;37.772;-122.432;2022-11-11T06:48:41;101652.87;;;11.67;75.93
63181;BME280;49273;37.772;-122.432;2022-11-11T06:51:09;101648.45;;;11.73;75.72
63181;BME280;49273;37.772;-122.432;2022-11-11T06:53:38;101649.23;;;11.81;75.11
63181;BME280;49273;37.772;-122.432;2022-11-11T06:56:07;101647.30;;;11.81;75.10
63181;BME280;49273;37.772;-122.432;2022-11-11T06:58:35;101644.47;;;11.79;75.10
63181;BME280;49273;37.772;-122.432;2022-11-11T07:01:05;101643.58;;;11.58;75.97
63181;BME280;49273;37.772;-122.432;2022-11-11T07:03:34;101645.91;;;11.56;76.04
63181;BME280;49273;37.772;-122.432;2022-11-11T07:06:03;101645.92;;;11.59;75.82
63181;BME280;49273;37.772;-122.432;2022-11-11T07:08:32;101647.89;;;11.56;75.83
63181;BME280;49273;37.772;-122.432;2022-11-11T07:11:00;101646.49;;;11.58;75.46
63181;BME280;49273;37.772;-122.432;2022-11-11T07:13:29;101647.85;;;11.59;75.90
63181;BME280;49273;37.772;-122.432;2022-11-11T07:15:57;101647.09;;;11.49;75.84
63181;BME280;49273;37.772;-122.432;2022-11-11T07:18:25;101653.12;;;11.41;76.42
63181;BME280;49273;37.772;-122.432;2022-11-11T07:20:53;101651.31;;;11.36;76.57
63181;BME280;49273;37.772;-122.432;2022-11-11T07:23:21;101650.34;;;11.49;76.12
63181;BME280;49273;37.772;-122.432;2022-11-11T07:25:49;101652.01;;;11.47;75.98
63181;BME280;49273;37.772;-122.432;2022-11-11T07:28:17;101649.85;;;11.39;76.18
63181;BME280;49273;37.772;-122.432;2022-11-11T07:30:45;101647.97;;;11.25;77.15
63181;BME280;49273;37.772;-122.432;2022-11-11T07:33:13;101642.73;;;11.31;76.95
63181;BME280;49273;37.772;-122.432;2022-11-11T07:35:41;101642.90;;;11.41;76.47
63181;BME280;49273;37.772;-122.432;2022-11-11T07:38:09;101642.61;;;11.27;76.10
63181;BME280;49273;37.772;-122.432;2022-11-11T07:40:37;101641.62;;;11.33;76.28
63181;BME280;49273;37.772;-122.432;2022-11-11T07:43:05;101644.63;;;11.34;76.09
63181;BME280;49273;37.772;-122.432;2022-11-11T07:45:33;101643.48;;;11.18;76.34
63181;BME280;49273;37.772;-122.432;2022-11-11T07:48:01;101646.18;;;11.18;76.38
63181;BME280;49273;37.772;-122.432;2022-11-11T07:50:29;101638.61;;;11.11;77.13
63181;BME280;49273;37.772;-122.432;2022-11-11T07:52:58;101634.25;;;11.17;76.60
63181;BME280;49273;37.772;-122.432;2022-11-11T07:55:26;101633.00;;;11.21;76.27
63181;BME280;49273;37.772;-122.432;2022-11-11T07:57:56;101633.55;;;11.21;76.09
63181;BME280;49273;37.772;-122.432;2022-11-11T08:00:24;101635.53;;;11.21;75.53
63181;BME280;49273;37.772;-122.432;2022-11-11T08:02:52;101637.31;;;11.14;75.79
63181;BME280;49273;37.772;-122.432;2022-11-11T08:05:21;101633.94;;;11.05;75.90
63181;BME280;49273;37.772;-122.432;2022-11-11T08:07:49;101634.48;;;11.06;76.01
63181;BME280;49273;37.772;-122.432;2022-11-11T08:10:17;101634.16;;;11.05;75.68
63181;BME280;49273;37.772;-122.432;2022-11-11T08:12:45;101635.04;;;10.88;76.70
63181;BME280;49273;37.772;-122.432;2022-11-11T08:15:15;101634.73;;;10.86;76.79
63181;BME280;49273;37.772;-122.432;2022-11-11T08:17:43;101634.02;;;10.80;76.91
63181;BME280;49273;37.772;-122.432;2022-11-11T08:20:12;101630.72;;;10.86;77.03
63181;BME280;49273;37.772;-122.432;2022-11-11T08:22:41;101629.91;;;10.96;76.62
63181;BME280;49273;37.772;-122.432;2022-11-11T08:25:11;101630.59;;;10.99;76.15
63181;BME280;49273;37.772;-122.432;2022-11-11T08:27:40;101629.53;;;10.95;76.11
63181;BME280;49273;37.772;-122.432;2022-11-11T08:30:09;101629.65;;;10.83;76.65
63181;BME280;49273;37.772;-122.432;2022-11-11T08:32:37;101630.23;;;10.86;77.08
63181;BME280;49273;37.772;-122.432;2022-11-11T08:35:06;101629.75;;;10.96;76.50
63181;BME280;49273;37.772;-122.432;2022-11-11T08:37:34;101629.14;;;10.85;76.50
63181;BME280;49273;37.772;-122.432;2022-11-11T08:40:03;101625.81;;;10.71;77.33
63181;BME280;49273;37.772;-122.432;2022-11-11T08:42:41;101625.17;;;10.68;77.52
63181;BME280;49273;37.772;-122.432;2022-11-11T08:45:14;101621.71;;;10.80;77.15
63181;BME280;49273;37.772;-122.432;2022-11-11T08:47:44;101621.63;;;10.71;76.98
63181;BME280;49273;37.772;-122.432;2022-11-11T08:50:12;101624.36;;;10.66;77.33
63181;BME280;49273;37.772;-122.432;2022-11-11T08:52:45;101625.93;;;10.75;77.40
63181;BME280;49273;37.772;-122.432;2022-11-11T08:55:13;101627.56;;;10.89;76.59
63181;BME280;49273;37.772;-122.432;2022-11-11T08:57:41;101623.41;;;10.81;76.03
63181;BME280;49273;37.772;-122.432;2022-11-11T09:00:11;101625.87;;;10.87;75.56
63181;BME280;49273;37.772;-122.432;2022-11-11T09:02:39;101626.54;;;10.86;75.59
63181;BME280;49273;37.772;-122.432;2022-11-11T09:05:07;101629.67;;;10.92;75.33
63181;BME280;49273;37.772;-122.432;2022-11-11T09:07:34;101628.91;;;10.79;75.47
63181;BME280;49273;37.772;-122.432;2022-11-11T09:10:03;101628.65;;;10.90;75.14
63181;BME280;49273;37.772;-122.432;2022-11-11T09:12:32;101630.45;;;10.85;75.16
63181;BME280;49273;37.772;-122.432;2022-11-11T09:15:00;101630.49;;;10.98;74.42
63181;BME280;49273;37.772;-122.432;2022-11-11T09:17:28;101630.26;;;10.94;74.36
63181;BME280;49273;37.772;-122.432;2022-11-11T09:19:56;101626.82;;;10.92;74.28
63181;BME280;49273;37.772;-122.432;2022-11-11T09:22:24;101626.11;;;10.97;73.54
63181;BME280;49273;37.772;-122.432;2022-11-11T09:24:52;101623.97;;;10.96;73.84
63181;BME280;49273;37.772;-122.432;2022-11-11T09:27:20;101619.34;;;10.87;73.30
63181;BME280;49273;37.772;-122.432;2022-11-11T09:29:48;101619.88;;;10.93;72.78
63181;BME280;49273;37.772;-122.432;2022-11-11T09:32:16;101618.51;;;11.03;72.72
63181;BME280;49273;37.772;-122.432;2022-11-11T09:34:44;101619.39;;;11.03;72.44
63181;BME280;49273;37.772;-122.432;2022-11-11T09:37:12;101621.49;;;11.03;72.48
63181;BME280;49273;37.772;-122.432;2022-11-11T09:39:40;101620.99;;;10.97;72.59
63181;BME280;49273;37.772;-122.432;2022-11-11T09:42:13;101624.32;;;10.88;72.65
63181;BME280;49273;37.772;-122.432;2022-11-11T09:45:04;101624.58;;;10.84;72.78
63181;BME280;49273;37.772;-122.432;2022-11-11T09:47:44;101623.85;;;10.80;73.31
63181;BME280;49273;37.772;-122.432;2022-11-11T09:50:21;101623.47;;;10.85;73.42
63181;BME280;49273;37.772;-122.432;2022-11-11T09:52:53;101621.66;;;10.85;73.28
63181;BME280;49273;37.772;-122.432;2022-11-11T09:55:28;101620.31;;;10.76;74.06
63181;BME280;49273;37.772;-122.432;2022-11-11T09:57:59;101616.22;;;10.74;73.68
63181;BME280;49273;37.772;-122.432;2022-11-11T10:00:31;101617.42;;;10.68;73.70
63181;BME280;49273;37.772;-122.432;2022-11-11T10:03:11;101617.70;;;10.80;73.21
63181;BME280;49273;37.772;-122.432;2022-11-11T10:05:46;101616.86;;;10.70;74.19
63181;BME280;49273;37.772;-122.432;2022-11-11T10:08:21;101618.52;;;10.74;73.89
63181;BME280;49273;37.772;-122.432;2022-11-11T10:10:52;101620.53;;;10.65;73.85
63181;BME280;49273;37.772;-122.432;2022-11-11T10:13:26;101621.63;;;10.65;74.46
63181;BME280;49273;37.772;-122.432;2022-11-11T10:16:03;101619.43;;;10.59;74.38
63181;BME280;49273;37.772;-122.432;2022-11-11T10:18:44;101620.56;;;10.54;74.77
63181;BME280;49273;37.772;-122.432;2022-11-11T10:21:15;101616.16;;;10.62;74.78
63181;BME280;49273;37.772;-122.432;2022-11-11T10:23:45;101612.15;;;10.49;75.21
63181;BME280;49273;37.772;-122.432;2022-11-11T10:26:18;101605.81;;;10.52;75.03
63181;BME280;49273;37.772;-122.432;2022-11-11T10:28:56;101601.72;;;10.42;75.50
63181;BME280;49273;37.772;-122.432;2022-11-11T10:31:25;101598.56;;;10.46;75.38
63181;BME280;49273;37.772;-122.432;2022-11-11T10:33:59;101595.83;;;10.29;75.85
63181;BME280;49273;37.772;-122.432;2022-11-11T10:36:30;101595.33;;;10.30;76.22
63181;BME280;49273;37.772;-122.432;2022-11-11T10:39:00;101594.20;;;10.41;76.05
63181;BME280;49273;37.772;-122.432;2022-11-11T10:41:33;101596.07;;;10.47;75.92
63181;BME280;49273;37.772;-122.432;2022-11-11T10:44:18;101596.96;;;10.46;76.33
63181;BME280;49273;37.772;-122.432;2022-11-11T10:46:56;101594.17;;;10.45;76.49
63181;BME280;49273;37.772;-122.432;2022-11-11T10:49:30;101589.62;;;10.44;76.95
63181;BME280;49273;37.772;-122.432;2022-11-11T10:52:03;101583.31;;;10.37;77.41
63181;BME280;49273;37.772;-122.432;2022-11-11T10:54:39;101584.26;;;10.48;77.22
63181;BME280;49273;37.772;-122.432;2022-11-11T10:57:12;101584.11;;;10.39;78.03
63181;BME280;49273;37.772;-122.432;2022-11-11T10:59:48;101583.06;;;10.33;78.14
63181;BME280;49273;37.772;-122.432;2022-11-11T11:02:23;101581.61;;;10.36;78.25
63181;BME280;49273;37.772;-122.432;2022-11-11T11:04:59;101578.58;;;10.44;78.63
63181;BME280;49273;37.772;-122.432;2022-11-11T11:07:39;101575.99;;;10.39;78.53
63181;BME280;49273;37.772;-122.432;2022-11-11T11:10:12;101574.81;;;10.36;78.85
63181;BME280;49273;37.772;-122.432;2022-11-11T11:12:48;101572.95;;;10.35;78.80
63181;BME280;49273;37.772;-122.432;2022-11-11T11:15:19;101574.06;;;10.33;79.07
63181;BME280;49273;37.772;-122.432;2022-11-11T11:17:53;101570.50;;;10.25;79.18
63181;BME280;49273;37.772;-122.432;2022-11-11T11:20:24;101569.95;;;10.32;79.32
63181;BME280;49273;37.772;-122.432;2022-11-11T11:22:53;101567.02;;;10.28;79.18
63181;BME280;49273;37.772;-122.432;2022-11-11T11:25:22;101570.75;;;10.28;79.37
63181;BME280;49273;37.772;-122.432;2022-11-11T11:27:52;101566.00;;;10.25;79.79
63181;BME280;49273;37.772;-122.432;2022-11-11T11:30:31;101565.27;;;10.27;80.18
63181;BME280;49273;37.772;-122.432;2022-11-11T11:33:01;101568.91;;;10.32;79.47
63181;BME280;49273;37.772;-122.432;2022-11-11T11:35:34;101570.66;;;10.39;79.59
63181;BME280;49273;37.772;-122.432;2022-11-11T11:38:03;101570.75;;;10.35;79.96
63181;BME280;49273;37.772;-122.432;2022-11-11T11:40:46;101569.85;;;10.30;80.23
63181;BME280;49273;37.772;-122.432;2022-11-11T11:43:25;101570.51;;;10.43;79.91
63181;BME280;49273;37.772;-122.432;2022-11-11T11:45:56;101566.85;;;10.28;80.51
63181;BME280;49273;37.772;-122.432;2022-11-11T11:48:34;101569.98;;;10.35;80.20
63181;BME280;49273;37.772;-122.432;2022-11-11T11:51:12;101569.06;;;10.33;80.05
63181;BME280;49273;37.772;-122.432;2022-11-11T11:53:55;101569.22;;;10.27;80.58
63181;BME280;49273;37.772;-122.432;2022-11-11T11:56:35;101568.76;;;10.36;79.89
63181;BME280;49273;37.772;-122.432;2022-11-11T11:59:11;101569.96;;;10.17;80.46
63181;BME280;49273;37.772;-122.432;2022-11-11T12:01:50;101571.15;;;10.12;80.92
63181;BME280;49273;37.772;-122.432;2022-11-11T12:05:34;101569.87;;;10.07;81.40
63181;BME280;49273;37.772;-122.432;2022-11-11T12:08:25;101568.77;;;10.07;81.51
63181;BME280;49273;37.772;-122.432;2022-11-11T12:11:04;101569.43;;;10.22;81.11
63181;BME280;49273;37.772;-122.432;2022-11-11T12:13:43;101565.37;;;10.15;81.42
63181;BME280;49273;37.772;-122.432;2022-11-11T12:16:22;101561.27;;;10.12;81.70
63181;BME280;49273;37.772;-122.432;2022-11-11T12:19:09;101558.47;;;10.19;81.34
63181;BME280;49273;37.772;-122.432;2022-11-11T12:21:50;101561.72;;;10.18;81.14
63181;BME280;49273;37.772;-122.432;2022-11-11T12:24:33;101560.34;;;10.19;81.23
63181;BME280;49273;37.772;-122.432;2022-11-11T12:27:13;101559.87;;;10.08;81.81
63181;BME280;49273;37.772;-122.432;2022-11-11T12:29:57;101564.51;;;10.12;82.01
63181;BME280;49273;37.772;-122.432;2022-11-11T12:32:41;101564.95;;;10.11;81.95
63181;BME280;49273;37.772;-122.432;2022-11-11T12:35:24;101570.62;;;10.10;81.43
63181;BME280;49273;37.772;-122.432;2022-11-11T12:38:13;101571.80;;;10.06;81.62